Time,TemperatureF,DewpointF,PressureIn,WindDirection,WindDirectionDegrees,WindSpeedMPH,WindSpeedGustMPH,Humidity,HourlyPrecipIn,Conditions,Clouds,dailyrainin,SolarRadiationWatts/m^2,SoftwareType,DateUTC
2013-01-01 00:22:00,33.0,23.0,-100.00,North,2,4.0,13.0,65,0.00,,,-99.99,0.000000,,2013-01-01 08:22:00,
2013-01-01 00:32:00,33.0,23.0,-100.00,North,2,4.0,13.0,65,0.00,,,-99.99,0.000000,,2013-01-01 08:32:00,
2013-01-01 00:42:00,33.0,23.0,-100.00,North,2,4.0,13.0,65,0.00,,,-99.99,0.000000,,2013-01-01 08:42:00,
2013-01-01 00:53:00,33.0,23.0,-100.00,North,2,4.0,13.0,65,0.00,,,-99.99,0.000000,,2013-01-01 08:53:00,
2013-01-01 01:22:00,34.0,24.0,-100.00,East,100,1.0,10.0,67,0.00,,,-99.99,0.000000,,2013-01-01 09:22:00,
2013-01-01 01:32:00,34.0,24.0,-100.00,East,100,1.0,10.0,67,0.00,,,-99.99,0.000000,,2013-01-01 09:32:00,
2013-01-01 01:42:00,34.0,24.0,-100.00,East,100,1.0,10.0,67,0.00,,,-99.99,0.000000,,2013-01-01 09:42:00,
2013-01-01 01:52:00,34.0,24.0,-100.00,East,100,1.0,10.0,67,0.00,,,-99.99,0.000000,,2013-01-01 09:52:00,
2013-01-01 02:22:00,34.0,22.0,-100.00,NNE,20,7.0,10.0,62,0.00,,,-99.99,0.000000,,2013-01-01 10:22:00,
2013-01-01 02:32:00,34.0,22.0,-100.00,NNE,20,7.0,10.0,62,0.00,,,-99.99,0.000000,,2013-01-01 10:32:00,
2013-01-01 02:42:00,34.0,22.0,-100.00,NNE,20,7.0,10.0,62,0.00,,,-99.99,0.000000,,2013-01-01 10:42:00,
2013-01-01 02:52:00,34.0,22.0,-100.00,NNE,20,7.0,10.0,62,0.00,,,-99.99,0.000000,,2013-01-01 10:52:00,
2013-01-01 03:22:00,32.0,25.0,-100.00,SSW,202,0.0,11.0,74,0.00,,,-99.99,0.000000,,2013-01-01 11:22:00,
2013-01-01 03:32:00,32.0,25.0,-100.00,SSW,202,0.0,11.0,74,0.00,,,-99.99,0.000000,,2013-01-01 11:32:00,
2013-01-01 03:42:00,32.0,25.0,-100.00,SSW,202,0.0,11.0,74,0.00,,,-99.99,0.000000,,2013-01-01 11:42:00,
2013-01-01 03:52:00,32.0,25.0,-100.00,SSW,202,0.0,11.0,74,0.00,,,-99.99,0.000000,,2013-01-01 11:52:00,
2013-01-01 04:22:00,33.0,26.0,-100.00,North,354,1.0,6.0,74,0.00,,,-99.99,0.000000,,2013-01-01 12:22:00,
2013-01-01 04:32:00,33.0,26.0,-100.00,North,354,1.0,6.0,74,0.00,,,-99.99,0.000000,,2013-01-01 12:32:00,
2013-01-01 04:42:00,33.0,26.0,-100.00,North,354,1.0,6.0,74,0.00,,,-99.99,0.000000,,2013-01-01 12:42:00,
2013-01-01 04:52:00,33.0,26.0,-100.00,North,354,1.0,6.0,74,0.00,,,-99.99,0.000000,,2013-01-01 12:52:00,
2013-01-01 05:22:00,34.0,24.0,-100.00,North,11,6.0,10.0,67,0.00,,,-99.99,0.000000,,2013-01-01 13:22:00,
2013-01-01 05:32:00,34.0,24.0,-100.00,North,11,6.0,10.0,67,0.00,,,-99.99,0.000000,,2013-01-01 13:32:00,
2013-01-01 05:42:00,34.0,24.0,-100.00,North,11,6.0,10.0,67,0.00,,,-99.99,0.000000,,2013-01-01 13:42:00,
2013-01-01 05:52:00,34.0,24.0,-100.00,North,11,6.0,10.0,67,0.00,,,-99.99,0.000000,,2013-01-01 13:52:00,
2013-01-01 06:22:00,35.0,24.0,-100.00,North,7,8.0,12.0,63,0.00,,,-99.99,0.000000,,2013-01-01 14:22:00,
2013-01-01 06:32:00,35.0,24.0,-100.00,North,7,8.0,12.0,63,0.00,,,-99.99,0.000000,,2013-01-01 14:32:00,
2013-01-01 06:42:00,35.0,24.0,-100.00,North,7,8.0,12.0,63,0.00,,,-99.99,0.000000,,2013-01-01 14:42:00,
2013-01-01 06:52:00,35.0,24.0,-100.00,North,7,8.0,12.0,63,0.00,,,-99.99,0.000000,,2013-01-01 14:52:00,
2013-01-01 07:22:00,34.0,24.0,-100.00,NNW,347,4.0,11.0,66,0.00,,,-99.99,0.000000,,2013-01-01 15:22:00,
2013-01-01 07:33:00,34.0,24.0,-100.00,NNW,347,4.0,11.0,66,0.00,,,-99.99,0.000000,,2013-01-01 15:33:00,
2013-01-01 07:42:00,34.0,24.0,-100.00,NNW,347,4.0,11.0,66,0.00,,,-99.99,0.000000,,2013-01-01 15:42:00,
2013-01-01 07:52:00,34.0,24.0,-100.00,NNW,347,4.0,11.0,66,0.00,,,-99.99,0.000000,,2013-01-01 15:52:00,
2013-01-01 08:22:00,36.0,24.0,-100.00,NNE,17,9.0,12.0,62,0.00,,,-99.99,40.000000,,2013-01-01 16:22:00,
2013-01-01 08:32:00,36.0,24.0,-100.00,NNE,17,9.0,12.0,62,0.00,,,-99.99,40.000000,,2013-01-01 16:32:00,
2013-01-01 08:42:00,36.0,24.0,-100.00,NNE,17,9.0,12.0,62,0.00,,,-99.99,40.000000,,2013-01-01 16:42:00,
2013-01-01 08:52:00,36.0,24.0,-100.00,NNE,17,9.0,12.0,62,0.00,,,-99.99,40.000000,,2013-01-01 16:52:00,
2013-01-01 09:22:00,37.0,23.0,-100.00,North,355,3.0,12.0,56,0.00,,,-99.99,130.000000,,2013-01-01 17:22:00,
2013-01-01 09:33:00,37.0,23.0,-100.00,North,355,3.0,12.0,56,0.00,,,-99.99,130.000000,,2013-01-01 17:33:00,
2013-01-01 09:42:00,37.0,23.0,-100.00,North,355,3.0,12.0,56,0.00,,,-99.99,130.000000,,2013-01-01 17:42:00,
2013-01-01 09:52:00,37.0,23.0,-100.00,North,355,3.0,12.0,56,0.00,,,-99.99,130.000000,,2013-01-01 17:52:00,
2013-01-01 10:22:00,41.0,27.0,-100.00,North,3,3.0,5.0,57,0.00,,,-99.99,187.000000,,2013-01-01 18:22:00,
2013-01-01 10:33:00,41.0,27.0,-100.00,North,3,3.0,5.0,57,0.00,,,-99.99,187.000000,,2013-01-01 18:33:00,
2013-01-01 10:42:00,41.0,27.0,-100.00,North,3,3.0,5.0,57,0.00,,,-99.99,187.000000,,2013-01-01 18:42:00,
2013-01-01 10:52:00,41.0,27.0,-100.00,North,3,3.0,5.0,57,0.00,,,-99.99,187.000000,,2013-01-01 18:52:00,
2013-01-01 11:22:00,46.0,24.0,-100.00,NNE,27,2.0,10.0,42,0.00,,,-99.99,461.000000,,2013-01-01 19:22:00,
2013-01-01 11:32:00,46.0,24.0,-100.00,NNE,27,2.0,10.0,42,0.00,,,-99.99,461.000000,,2013-01-01 19:32:00,
2013-01-01 11:42:00,46.0,24.0,-100.00,NNE,27,2.0,10.0,42,0.00,,,-99.99,461.000000,,2013-01-01 19:42:00,
2013-01-01 11:52:00,46.0,24.0,-100.00,NNE,27,2.0,10.0,42,0.00,,,-99.99,461.000000,,2013-01-01 19:52:00,
2013-01-01 12:22:00,48.0,20.0,-100.00,South,184,8.0,17.0,32,0.00,,,-99.99,631.000000,,2013-01-01 20:22:00,
2013-01-01 12:32:00,48.0,20.0,-100.00,South,184,8.0,17.0,32,0.00,,,-99.99,631.000000,,2013-01-01 20:32:00,
2013-01-01 12:42:00,48.0,20.0,-100.00,South,184,8.0,17.0,32,0.00,,,-99.99,631.000000,,2013-01-01 20:42:00,
2013-01-01 12:52:00,48.0,20.0,-100.00,South,184,8.0,17.0,32,0.00,,,-99.99,631.000000,,2013-01-01 20:52:00,
2013-01-01 13:22:00,48.0,16.0,-100.00,South,182,15.0,22.0,28,0.00,,,-99.99,460.000000,,2013-01-01 21:22:00,
2013-01-01 13:32:00,48.0,16.0,-100.00,South,182,15.0,22.0,28,0.00,,,-99.99,460.000000,,2013-01-01 21:32:00,
2013-01-01 13:42:00,48.0,16.0,-100.00,South,182,15.0,22.0,28,0.00,,,-99.99,460.000000,,2013-01-01 21:42:00,
2013-01-01 13:52:00,48.0,16.0,-100.00,South,182,15.0,22.0,28,0.00,,,-99.99,460.000000,,2013-01-01 21:52:00,
2013-01-01 14:22:00,47.0,14.0,-100.00,South,184,11.0,26.0,26,0.00,,,-99.99,210.000000,,2013-01-01 22:22:00,
2013-01-01 14:32:00,47.0,14.0,-100.00,South,184,11.0,26.0,26,0.00,,,-99.99,210.000000,,2013-01-01 22:32:00,
2013-01-01 14:42:00,47.0,14.0,-100.00,South,184,11.0,26.0,26,0.00,,,-99.99,210.000000,,2013-01-01 22:42:00,
2013-01-01 14:52:00,47.0,14.0,-100.00,South,184,11.0,26.0,26,0.00,,,-99.99,210.000000,,2013-01-01 22:52:00,
2013-01-01 15:22:00,51.0,16.0,-100.00,SSW,212,9.0,20.0,24,0.00,,,-99.99,365.000000,,2013-01-01 23:22:00,
2013-01-01 15:32:00,51.0,16.0,-100.00,SSW,212,9.0,20.0,24,0.00,,,-99.99,365.000000,,2013-01-01 23:32:00,
2013-01-01 15:42:00,51.0,16.0,-100.00,SSW,212,9.0,20.0,24,0.00,,,-99.99,365.000000,,2013-01-01 23:42:00,
2013-01-01 15:52:00,51.0,16.0,-100.00,SSW,212,9.0,20.0,24,0.00,,,-99.99,365.000000,,2013-01-01 23:52:00,
2013-01-01 16:22:00,48.0,14.0,-100.00,SSW,200,5.0,16.0,25,0.00,,,-99.99,193.000000,,2013-01-02 00:22:00,
2013-01-01 16:32:00,48.0,14.0,-100.00,SSW,200,5.0,16.0,25,0.00,,,-99.99,193.000000,,2013-01-02 00:32:00,
2013-01-01 16:42:00,48.0,14.0,-100.00,SSW,200,5.0,16.0,25,0.00,,,-99.99,193.000000,,2013-01-02 00:42:00,
2013-01-01 16:52:00,48.0,14.0,-100.00,SSW,200,5.0,16.0,25,0.00,,,-99.99,193.000000,,2013-01-02 00:52:00,
2013-01-01 17:22:00,46.0,12.0,-100.00,SSW,200,5.0,14.0,25,0.00,,,0.00,17.000000,,2013-01-02 01:22:00,
2013-01-01 17:32:00,46.0,12.0,-100.00,SSW,200,5.0,14.0,25,0.00,,,0.00,17.000000,,2013-01-02 01:32:00,
2013-01-01 17:42:00,46.0,12.0,-100.00,SSW,200,5.0,14.0,25,0.00,,,0.00,17.000000,,2013-01-02 01:42:00,
2013-01-01 17:52:00,46.0,12.0,-100.00,SSW,200,5.0,14.0,25,0.00,,,0.00,17.000000,,2013-01-02 01:52:00,
2013-01-01 18:22:00,42.0,11.0,-100.00,SSE,160,0.0,7.0,28,0.00,,,0.00,0.000000,,2013-01-02 02:22:00,
2013-01-01 18:32:00,42.0,11.0,-100.00,SSE,160,0.0,7.0,28,0.00,,,0.00,0.000000,,2013-01-02 02:32:00,
2013-01-01 18:42:00,42.0,11.0,-100.00,SSE,160,0.0,7.0,28,0.00,,,0.00,0.000000,,2013-01-02 02:42:00,
2013-01-01 18:52:00,42.0,11.0,-100.00,SSE,160,0.0,7.0,28,0.00,,,0.00,0.000000,,2013-01-02 02:52:00,
2013-01-01 19:22:00,40.0,19.0,-100.00,NNW,348,7.0,12.0,42,0.00,,,0.00,0.000000,,2013-01-02 03:22:00,
2013-01-01 19:32:00,40.0,19.0,-100.00,NNW,348,7.0,12.0,42,0.00,,,0.00,0.000000,,2013-01-02 03:32:00,
2013-01-01 19:42:00,40.0,19.0,-100.00,NNW,348,7.0,12.0,42,0.00,,,0.00,0.000000,,2013-01-02 03:42:00,
2013-01-01 19:52:00,40.0,19.0,-100.00,NNW,348,7.0,12.0,42,0.00,,,0.00,0.000000,,2013-01-02 03:52:00,
2013-01-01 20:22:00,38.0,21.0,-100.00,North,10,13.0,18.0,49,0.00,,,0.00,0.000000,,2013-01-02 04:22:00,
2013-01-01 20:32:00,38.0,21.0,-100.00,North,10,13.0,18.0,49,0.00,,,0.00,0.000000,,2013-01-02 04:32:00,
2013-01-01 20:42:00,38.0,21.0,-100.00,North,10,13.0,18.0,49,0.00,,,0.00,0.000000,,2013-01-02 04:42:00,
2013-01-01 20:52:00,38.0,21.0,-100.00,North,10,13.0,18.0,49,0.00,,,0.00,0.000000,,2013-01-02 04:52:00,
2013-01-01 21:22:00,37.0,21.0,-100.00,North,8,12.0,21.0,51,0.00,,,0.00,0.000000,,2013-01-02 05:22:00,
2013-01-01 21:32:00,37.0,21.0,-100.00,North,8,12.0,21.0,51,0.00,,,0.00,0.000000,,2013-01-02 05:32:00,
2013-01-01 21:42:00,37.0,21.0,-100.00,North,8,12.0,21.0,51,0.00,,,0.00,0.000000,,2013-01-02 05:42:00,
2013-01-01 21:52:00,37.0,21.0,-100.00,North,8,12.0,21.0,51,0.00,,,0.00,0.000000,,2013-01-02 05:52:00,
2013-01-01 22:22:00,36.0,18.0,-100.00,NNE,15,14.0,19.0,48,0.00,,,0.00,0.000000,,2013-01-02 06:22:00,
2013-01-01 22:32:00,36.0,18.0,-100.00,NNE,15,14.0,19.0,48,0.00,,,0.00,0.000000,,2013-01-02 06:32:00,
2013-01-01 22:42:00,36.0,18.0,-100.00,NNE,15,14.0,19.0,48,0.00,,,0.00,0.000000,,2013-01-02 06:42:00,
2013-01-01 22:52:00,36.0,18.0,-100.00,NNE,15,14.0,19.0,48,0.00,,,0.00,0.000000,,2013-01-02 06:52:00,
2013-01-01 23:22:00,35.0,21.0,-100.00,North,7,13.0,18.0,56,0.00,,,0.00,0.000000,,2013-01-02 07:22:00,
2013-01-01 23:32:00,35.0,21.0,-100.00,North,7,13.0,18.0,56,0.00,,,0.00,0.000000,,2013-01-02 07:32:00,
2013-01-01 23:42:00,35.0,21.0,-100.00,North,7,13.0,18.0,56,0.00,,,0.00,0.000000,,2013-01-02 07:42:00,
2013-01-01 23:52:00,35.0,21.0,-100.00,North,7,13.0,18.0,56,0.00,,,0.00,0.000000,,2013-01-02 07:52:00,